Terminal Aerodrome Forecast
Issued by NWS

Home | Current Version | Previous Version | Text Only | Print | Product List | Glossary On
Versions: 1 2 3 4 5 6 7 8 9 10 11 12 13 14 15 16 17 18 19 20 21 22 23 24 25 26 27 28 29 30 31 32
000
FTUS41 KGYX 251323 AAC
TAFLEB
TAF AMD
KLEB 251323Z 2513/2612 VRB03KT 2SM BR BKN001 OVC007
     FM251600 18005KT 1 1/2SM -SHRA BR BKN015
     FM260300 26009KT 3SM -SHRA BR OVC025
     FM260600 29012G20KT P6SM BKN030=

USA.gov is the U.S. government's official web portal to all federal, state and local government web resources and services.